Portada
METAR-TAF:

METAR-TAF

Aeroports :

Mwanza, Tanzània

latitud: 02-28S, longitud: 032-55E, altitud: 1139 m

Observació

L'informe es va fer fa 2 hores i 9 minuts, a les 20:00 UTC
Vent calma
Temperatura 20°C
Humitat 83%
Pressió 1016 hPa
Visibilitat 10 km o més
Núvols disperses a una alçada de 2000 ft
Escasses núvols a una alçada de 2100 ft, Cumulonimbus.
Cel ennuvolat a una alçada de 8000 ft

METAR: HTMW 012000Z 00000KT 9999 SCT020 FEW021CB BKN080 20/17 Q1016 NOSIG

Hora: 01:09 (22:09 UTC)

Pronòstic

L'informe es va fer fa 11 hores i 9 minuts, a les 11:00 UTC
Pronòstic vàlid del 01 a les 12 UTC al 02 a les 12 UTC
Vent 10 kt del Nord/Nord-Oest
Visibilitat 10 km o més
Escasses núvols a una alçada de 2500 ft
Escasses núvols a una alçada de 2700 ft, Cumulonimbus.

TAF: HTMW 011100Z 0112/0212 33010KT 9999 FEW025 FEW027CB

Observacions i pronòstics meteorològics de més de 4000 aeroports (METAR i TAF).

Les estacions disponibles són els punts grocs i vermells al mapa.

Posi el ratolí al punt desitjat per veure el nom de l'estació.

Feu clic per veure les observacions i els pronòstics meteorològics.

Per canviar el mapa: feu clic els botons verds amb una creu de color negre per apropar; al botó verd amb un guió per allunyar la imatge; o en les fletxes verdes per a mapes adjacents.


METAR-TAF: